sensor_id;sensor_type;location;lat;lon;timestamp;temperature;humidity
3842;DHT22;1936;47.074;15.336;2023-07-22T00:01:42;17.10;96.10
3842;DHT22;1936;47.074;15.336;2023-07-22T00:03:47;17.20;95.90
3842;DHT22;1936;47.074;15.336;2023-07-22T00:06:02;17.10;95.80
3842;DHT22;1936;47.074;15.336;2023-07-22T00:08:07;17.20;95.70
3842;DHT22;1936;47.074;15.336;2023-07-22T00:10:10;17.10;95.40
3842;DHT22;1936;47.074;15.336;2023-07-22T00:12:14;17.10;95.40
3842;DHT22;1936;47.074;15.336;2023-07-22T00:14:17;16.90;95.80
3842;DHT22;1936;47.074;15.336;2023-07-22T00:16:21;16.90;96.00
3842;DHT22;1936;47.074;15.336;2023-07-22T00:18:26;16.90;96.50
3842;DHT22;1936;47.074;15.336;2023-07-22T00:20:31;16.90;95.80
3842;DHT22;1936;47.074;15.336;2023-07-22T00:22:35;16.80;95.90
3842;DHT22;1936;47.074;15.336;2023-07-22T00:24:38;16.90;95.60
3842;DHT22;1936;47.074;15.336;2023-07-22T00:26:42;16.80;95.50
3842;DHT22;1936;47.074;15.336;2023-07-22T00:28:45;16.80;95.60
3842;DHT22;1936;47.074;15.336;2023-07-22T00:30:48;16.70;95.70
3842;DHT22;1936;47.074;15.336;2023-07-22T00:32:52;16.50;96.50
3842;DHT22;1936;47.074;15.336;2023-07-22T00:34:56;16.60;96.10
3842;DHT22;1936;47.074;15.336;2023-07-22T00:37:00;16.60;95.80
3842;DHT22;1936;47.074;15.336;2023-07-22T00:39:04;16.60;95.80
3842;DHT22;1936;47.074;15.336;2023-07-22T00:41:07;16.50;95.90
3842;DHT22;1936;47.074;15.336;2023-07-22T00:43:10;16.60;95.60
3842;DHT22;1936;47.074;15.336;2023-07-22T00:45:14;16.60;95.30
3842;DHT22;1936;47.074;15.336;2023-07-22T00:47:18;16.50;95.60
3842;DHT22;1936;47.074;15.336;2023-07-22T00:49:23;16.50;95.50
3842;DHT22;1936;47.074;15.336;2023-07-22T00:51:26;16.60;95.60
3842;DHT22;1936;47.074;15.336;2023-07-22T00:53:31;16.60;95.40
3842;DHT22;1936;47.074;15.336;2023-07-22T00:55:35;16.60;95.40
3842;DHT22;1936;47.074;15.336;2023-07-22T00:57:38;16.60;95.60
3842;DHT22;1936;47.074;15.336;2023-07-22T00:59:41;16.50;95.60
3842;DHT22;1936;47.074;15.336;2023-07-22T01:01:44;16.60;95.60
3842;DHT22;1936;47.074;15.336;2023-07-22T01:03:47;16.40;95.60
3842;DHT22;1936;47.074;15.336;2023-07-22T01:05:51;16.50;95.80
3842;DHT22;1936;47.074;15.336;2023-07-22T01:07:55;16.30;95.80
3842;DHT22;1936;47.074;15.336;2023-07-22T01:09:59;16.20;95.90
3842;DHT22;1936;47.074;15.336;2023-07-22T01:12:03;16.20;96.20
3842;DHT22;1936;47.074;15.336;2023-07-22T01:14:07;16.20;95.70
3842;DHT22;1936;47.074;15.336;2023-07-22T01:16:11;16.20;95.80
3842;DHT22;1936;47.074;15.336;2023-07-22T01:18:15;16.20;95.80
3842;DHT22;1936;47.074;15.336;2023-07-22T01:20:18;16.10;95.60
3842;DHT22;1936;47.074;15.336;2023-07-22T01:22:22;16.10;95.50
3842;DHT22;1936;47.074;15.336;2023-07-22T01:24:28;16.00;95.50
3842;DHT22;1936;47.074;15.336;2023-07-22T01:26:32;16.10;95.60
3842;DHT22;1936;47.074;15.336;2023-07-22T01:28:36;16.20;95.20
3842;DHT22;1936;47.074;15.336;2023-07-22T01:30:39;16.10;95.40
3842;DHT22;1936;47.074;15.336;2023-07-22T01:32:43;16.10;95.50
3842;DHT22;1936;47.074;15.336;2023-07-22T01:34:47;16.10;95.30
3842;DHT22;1936;47.074;15.336;2023-07-22T01:36:50;16.10;95.20
3842;DHT22;1936;47.074;15.336;2023-07-22T01:38:54;15.90;95.80
3842;DHT22;1936;47.074;15.336;2023-07-22T01:40:58;15.90;95.80
3842;DHT22;1936;47.074;15.336;2023-07-22T01:43:02;15.90;95.90
3842;DHT22;1936;47.074;15.336;2023-07-22T01:45:05;15.80;95.90
3842;DHT22;1936;47.074;15.336;2023-07-22T01:47:09;15.80;96.00
3842;DHT22;1936;47.074;15.336;2023-07-22T01:49:13;15.80;95.80
3842;DHT22;1936;47.074;15.336;2023-07-22T01:51:16;15.80;95.60
3842;DHT22;1936;47.074;15.336;2023-07-22T01:53:20;15.80;95.60
3842;DHT22;1936;47.074;15.336;2023-07-22T01:55:23;15.80;95.60
3842;DHT22;1936;47.074;15.336;2023-07-22T01:57:28;15.90;99.10
3842;DHT22;1936;47.074;15.336;2023-07-22T01:59:31;15.90;99.90
3842;DHT22;1936;47.074;15.336;2023-07-22T02:01:35;15.80;99.90
3842;DHT22;1936;47.074;15.336;2023-07-22T02:03:38;15.70;99.90
3842;DHT22;1936;47.074;15.336;2023-07-22T02:07:46;15.50;95.50
3842;DHT22;1936;47.074;15.336;2023-07-22T02:09:49;15.60;95.80
3842;DHT22;1936;47.074;15.336;2023-07-22T02:11:53;15.60;95.80
3842;DHT22;1936;47.074;15.336;2023-07-22T02:13:58;15.60;95.80
3842;DHT22;1936;47.074;15.336;2023-07-22T02:16:03;15.70;95.70
3842;DHT22;1936;47.074;15.336;2023-07-22T02:18:07;15.70;95.80
3842;DHT22;1936;47.074;15.336;2023-07-22T02:20:10;15.70;95.80
3842;DHT22;1936;47.074;15.336;2023-07-22T02:22:14;15.70;95.80
3842;DHT22;1936;47.074;15.336;2023-07-22T02:24:17;15.70;96.00
3842;DHT22;1936;47.074;15.336;2023-07-22T02:26:21;15.80;95.90
3842;DHT22;1936;47.074;15.336;2023-07-22T02:28:25;15.90;95.80
3842;DHT22;1936;47.074;15.336;2023-07-22T02:30:30;15.90;95.70
3842;DHT22;1936;47.074;15.336;2023-07-22T02:32:33;15.80;96.00
3842;DHT22;1936;47.074;15.336;2023-07-22T02:34:36;15.90;96.10
3842;DHT22;1936;47.074;15.336;2023-07-22T02:36:40;15.90;96.00
3842;DHT22;1936;47.074;15.336;2023-07-22T02:38:43;15.80;96.10
3842;DHT22;1936;47.074;15.336;2023-07-22T02:40:45;15.90;96.10
3842;DHT22;1936;47.074;15.336;2023-07-22T02:42:48;15.90;95.90
3842;DHT22;1936;47.074;15.336;2023-07-22T02:44:52;15.90;95.80
3842;DHT22;1936;47.074;15.336;2023-07-22T02:46:56;16.00;95.40
3842;DHT22;1936;47.074;15.336;2023-07-22T02:49:00;16.00;95.50
3842;DHT22;1936;47.074;15.336;2023-07-22T02:51:04;15.90;95.60
3842;DHT22;1936;47.074;15.336;2023-07-22T02:53:07;15.90;95.70
3842;DHT22;1936;47.074;15.336;2023-07-22T02:55:14;15.90;95.90
3842;DHT22;1936;47.074;15.336;2023-07-22T02:57:18;16.00;95.50
3842;DHT22;1936;47.074;15.336;2023-07-22T02:59:20;15.90;95.70
3842;DHT22;1936;47.074;15.336;2023-07-22T03:01:24;15.80;95.70
3842;DHT22;1936;47.074;15.336;2023-07-22T03:03:29;16.00;95.50
3842;DHT22;1936;47.074;15.336;2023-07-22T03:05:35;15.90;95.90
3842;DHT22;1936;47.074;15.336;2023-07-22T03:07:42;16.00;95.90
3842;DHT22;1936;47.074;15.336;2023-07-22T03:09:45;16.10;96.10
3842;DHT22;1936;47.074;15.336;2023-07-22T03:11:48;16.00;96.10
3842;DHT22;1936;47.074;15.336;2023-07-22T03:13:52;16.00;96.20
3842;DHT22;1936;47.074;15.336;2023-07-22T03:15:57;16.00;96.40
3842;DHT22;1936;47.074;15.336;2023-07-22T03:18:01;15.90;96.90
3842;DHT22;1936;47.074;15.336;2023-07-22T03:20:06;15.90;96.90
3842;DHT22;1936;47.074;15.336;2023-07-22T03:22:15;16.00;96.60
3842;DHT22;1936;47.074;15.336;2023-07-22T03:24:19;16.10;96.70
3842;DHT22;1936;47.074;15.336;2023-07-22T03:26:22;16.20;96.30
3842;DHT22;1936;47.074;15.336;2023-07-22T03:28:26;16.20;96.40
3842;DHT22;1936;47.074;15.336;2023-07-22T03:30:30;16.40;96.00
3842;DHT22;1936;47.074;15.336;2023-07-22T03:32:33;16.30;96.30
3842;DHT22;1936;47.074;15.336;2023-07-22T03:34:36;16.30;96.20
3842;DHT22;1936;47.074;15.336;2023-07-22T03:36:41;16.30;95.90
3842;DHT22;1936;47.074;15.336;2023-07-22T03:38:45;16.30;95.70
3842;DHT22;1936;47.074;15.336;2023-07-22T03:40:48;16.30;95.70
3842;DHT22;1936;47.074;15.336;2023-07-22T03:42:52;16.30;95.60
3842;DHT22;1936;47.074;15.336;2023-07-22T03:44:56;16.40;95.30
3842;DHT22;1936;47.074;15.336;2023-07-22T03:47:00;16.40;95.30
3842;DHT22;1936;47.074;15.336;2023-07-22T03:49:03;16.20;95.30
3842;DHT22;1936;47.074;15.336;2023-07-22T03:51:07;16.30;95.20
3842;DHT22;1936;47.074;15.336;2023-07-22T03:53:22;16.30;95.10
3842;DHT22;1936;47.074;15.336;2023-07-22T03:55:25;16.30;95.20
3842;DHT22;1936;47.074;15.336;2023-07-22T03:57:29;16.40;95.00
3842;DHT22;1936;47.074;15.336;2023-07-22T03:59:32;16.40;95.00
3842;DHT22;1936;47.074;15.336;2023-07-22T04:01:35;16.30;95.10
3842;DHT22;1936;47.074;15.336;2023-07-22T04:03:39;16.30;95.30
3842;DHT22;1936;47.074;15.336;2023-07-22T04:05:42;16.20;95.80
3842;DHT22;1936;47.074;15.336;2023-07-22T04:07:46;16.30;95.70
3842;DHT22;1936;47.074;15.336;2023-07-22T04:09:50;16.40;95.50
3842;DHT22;1936;47.074;15.336;2023-07-22T04:11:53;16.30;95.60
3842;DHT22;1936;47.074;15.336;2023-07-22T04:13:57;16.40;95.40
3842;DHT22;1936;47.074;15.336;2023-07-22T04:16:00;16.40;95.30
3842;DHT22;1936;47.074;15.336;2023-07-22T04:18:04;16.40;95.30
3842;DHT22;1936;47.074;15.336;2023-07-22T04:20:08;16.40;95.50
3842;DHT22;1936;47.074;15.336;2023-07-22T04:22:12;16.30;95.40
3842;DHT22;1936;47.074;15.336;2023-07-22T04:24:15;16.30;95.70
3842;DHT22;1936;47.074;15.336;2023-07-22T04:26:19;16.30;95.70
3842;DHT22;1936;47.074;15.336;2023-07-22T04:28:24;16.30;95.80
3842;DHT22;1936;47.074;15.336;2023-07-22T04:30:27;16.30;95.70
3842;DHT22;1936;47.074;15.336;2023-07-22T04:32:30;16.40;95.20
3842;DHT22;1936;47.074;15.336;2023-07-22T04:34:32;16.30;95.40
3842;DHT22;1936;47.074;15.336;2023-07-22T04:36:36;16.50;95.60
3842;DHT22;1936;47.074;15.336;2023-07-22T04:38:39;16.60;95.40
3842;DHT22;1936;47.074;15.336;2023-07-22T04:40:43;16.70;95.10
3842;DHT22;1936;47.074;15.336;2023-07-22T04:42:47;16.80;94.70
3842;DHT22;1936;47.074;15.336;2023-07-22T04:44:50;16.80;95.10
3842;DHT22;1936;47.074;15.336;2023-07-22T04:46:53;16.90;95.10
3842;DHT22;1936;47.074;15.336;2023-07-22T04:48:56;16.90;95.00
3842;DHT22;1936;47.074;15.336;2023-07-22T04:51:00;17.00;95.10
3842;DHT22;1936;47.074;15.336;2023-07-22T04:53:03;17.00;95.10
3842;DHT22;1936;47.074;15.336;2023-07-22T04:55:06;17.20;95.20
3842;DHT22;1936;47.074;15.336;2023-07-22T04:57:11;17.30;95.20
3842;DHT22;1936;47.074;15.336;2023-07-22T04:59:16;17.50;95.40
3842;DHT22;1936;47.074;15.336;2023-07-22T05:01:20;17.60;95.30
3842;DHT22;1936;47.074;15.336;2023-07-22T05:03:24;17.80;95.10
3842;DHT22;1936;47.074;15.336;2023-07-22T05:05:28;17.80;95.00
3842;DHT22;1936;47.074;15.336;2023-07-22T05:07:32;18.00;94.90
3842;DHT22;1936;47.074;15.336;2023-07-22T05:09:36;18.30;94.90
3842;DHT22;1936;47.074;15.336;2023-07-22T05:11:40;18.40;94.50
3842;DHT22;1936;47.074;15.336;2023-07-22T05:13:43;18.50;94.40
3842;DHT22;1936;47.074;15.336;2023-07-22T05:15:49;18.70;94.40
3842;DHT22;1936;47.074;15.336;2023-07-22T05:17:52;18.80;94.10
3842;DHT22;1936;47.074;15.336;2023-07-22T05:19:56;18.80;93.70
3842;DHT22;1936;47.074;15.336;2023-07-22T05:21:58;18.70;94.40
3842;DHT22;1936;47.074;15.336;2023-07-22T05:24:02;18.70;94.50
3842;DHT22;1936;47.074;15.336;2023-07-22T05:26:05;18.90;94.40
3842;DHT22;1936;47.074;15.336;2023-07-22T05:28:09;18.90;94.20
3842;DHT22;1936;47.074;15.336;2023-07-22T05:30:12;18.80;94.00
3842;DHT22;1936;47.074;15.336;2023-07-22T05:32:36;18.90;93.90
3842;DHT22;1936;47.074;15.336;2023-07-22T05:34:40;18.80;93.20
3842;DHT22;1936;47.074;15.336;2023-07-22T05:36:43;19.10;93.90
3842;DHT22;1936;47.074;15.336;2023-07-22T05:38:46;19.30;93.80
3842;DHT22;1936;47.074;15.336;2023-07-22T05:40:51;19.40;93.60
3842;DHT22;1936;47.074;15.336;2023-07-22T05:42:55;19.50;93.40
3842;DHT22;1936;47.074;15.336;2023-07-22T05:44:58;19.70;93.30
3842;DHT22;1936;47.074;15.336;2023-07-22T05:47:03;19.70;93.30
3842;DHT22;1936;47.074;15.336;2023-07-22T05:49:09;19.90;93.30
3842;DHT22;1936;47.074;15.336;2023-07-22T05:51:12;20.00;93.10
3842;DHT22;1936;47.074;15.336;2023-07-22T05:53:17;19.80;92.40
3842;DHT22;1936;47.074;15.336;2023-07-22T05:55:20;19.50;93.20
3842;DHT22;1936;47.074;15.336;2023-07-22T05:57:23;19.70;93.60
3842;DHT22;1936;47.074;15.336;2023-07-22T05:59:26;19.90;93.00
3842;DHT22;1936;47.074;15.336;2023-07-22T06:01:30;20.00;93.10
3842;DHT22;1936;47.074;15.336;2023-07-22T06:03:33;20.20;92.80
3842;DHT22;1936;47.074;15.336;2023-07-22T06:05:38;20.30;92.40
3842;DHT22;1936;47.074;15.336;2023-07-22T06:07:40;20.40;92.00
3842;DHT22;1936;47.074;15.336;2023-07-22T06:09:43;20.40;92.00
3842;DHT22;1936;47.074;15.336;2023-07-22T06:11:47;20.50;91.90
3842;DHT22;1936;47.074;15.336;2023-07-22T06:13:51;20.40;91.60
3842;DHT22;1936;47.074;15.336;2023-07-22T06:15:54;20.50;91.90
3842;DHT22;1936;47.074;15.336;2023-07-22T06:17:58;20.50;91.90
3842;DHT22;1936;47.074;15.336;2023-07-22T06:20:01;20.50;91.80
3842;DHT22;1936;47.074;15.336;2023-07-22T06:22:06;20.30;91.40
3842;DHT22;1936;47.074;15.336;2023-07-22T06:24:09;20.20;92.20
3842;DHT22;1936;47.074;15.336;2023-07-22T06:26:13;20.30;92.10
3842;DHT22;1936;47.074;15.336;2023-07-22T06:28:16;20.50;92.20
3842;DHT22;1936;47.074;15.336;2023-07-22T06:30:19;20.60;92.00
3842;DHT22;1936;47.074;15.336;2023-07-22T06:32:23;20.80;92.00
3842;DHT22;1936;47.074;15.336;2023-07-22T06:34:26;20.80;91.90
3842;DHT22;1936;47.074;15.336;2023-07-22T06:36:29;20.90;91.40
3842;DHT22;1936;47.074;15.336;2023-07-22T06:38:34;20.80;91.30
3842;DHT22;1936;47.074;15.336;2023-07-22T06:40:38;20.90;91.10
3842;DHT22;1936;47.074;15.336;2023-07-22T06:42:41;20.90;91.20
3842;DHT22;1936;47.074;15.336;2023-07-22T06:44:45;20.80;91.80
3842;DHT22;1936;47.074;15.336;2023-07-22T06:46:48;20.90;91.00
3842;DHT22;1936;47.074;15.336;2023-07-22T06:48:52;21.00;90.90
3842;DHT22;1936;47.074;15.336;2023-07-22T06:50:55;21.20;91.20
3842;DHT22;1936;47.074;15.336;2023-07-22T06:52:57;21.20;91.30
3842;DHT22;1936;47.074;15.336;2023-07-22T06:55:03;20.90;90.70
3842;DHT22;1936;47.074;15.336;2023-07-22T06:57:07;21.10;90.70
3842;DHT22;1936;47.074;15.336;2023-07-22T06:59:10;21.20;90.30
3842;DHT22;1936;47.074;15.336;2023-07-22T07:01:13;21.20;90.00
3842;DHT22;1936;47.074;15.336;2023-07-22T07:03:17;21.60;90.40
3842;DHT22;1936;47.074;15.336;2023-07-22T07:05:20;21.80;90.60
3842;DHT22;1936;47.074;15.336;2023-07-22T07:07:23;21.80;90.60
3842;DHT22;1936;47.074;15.336;2023-07-22T07:09:27;21.80;90.80
3842;DHT22;1936;47.074;15.336;2023-07-22T07:11:32;21.90;87.50
3842;DHT22;1936;47.074;15.336;2023-07-22T07:13:35;21.70;88.10
3842;DHT22;1936;47.074;15.336;2023-07-22T07:15:39;21.80;86.90
3842;DHT22;1936;47.074;15.336;2023-07-22T07:17:43;21.90;87.70
3842;DHT22;1936;47.074;15.336;2023-07-22T07:19:46;22.10;88.60
3842;DHT22;1936;47.074;15.336;2023-07-22T07:21:50;22.30;88.00
3842;DHT22;1936;47.074;15.336;2023-07-22T07:23:53;22.50;89.90
3842;DHT22;1936;47.074;15.336;2023-07-22T07:25:57;23.20;87.20
3842;DHT22;1936;47.074;15.336;2023-07-22T07:28:03;23.70;85.70
3842;DHT22;1936;47.074;15.336;2023-07-22T07:30:07;24.20;82.50
3842;DHT22;1936;47.074;15.336;2023-07-22T07:32:11;24.40;82.20
3842;DHT22;1936;47.074;15.336;2023-07-22T07:34:14;24.30;82.30
3842;DHT22;1936;47.074;15.336;2023-07-22T07:36:17;25.00;83.50
3842;DHT22;1936;47.074;15.336;2023-07-22T07:38:20;26.00;75.50
3842;DHT22;1936;47.074;15.336;2023-07-22T07:40:24;27.00;63.70
3842;DHT22;1936;47.074;15.336;2023-07-22T07:42:28;27.10;66.00
3842;DHT22;1936;47.074;15.336;2023-07-22T07:44:33;27.10;63.20
3842;DHT22;1936;47.074;15.336;2023-07-22T07:46:36;28.10;64.70
3842;DHT22;1936;47.074;15.336;2023-07-22T07:48:40;28.80;62.60
3842;DHT22;1936;47.074;15.336;2023-07-22T07:50:42;30.30;60.70
3842;DHT22;1936;47.074;15.336;2023-07-22T07:52:46;31.30;56.50
3842;DHT22;1936;47.074;15.336;2023-07-22T07:54:50;32.80;49.10
3842;DHT22;1936;47.074;15.336;2023-07-22T07:56:53;33.90;47.30
3842;DHT22;1936;47.074;15.336;2023-07-22T07:58:55;34.50;49.70
3842;DHT22;1936;47.074;15.336;2023-07-22T08:01:00;35.10;47.80
3842;DHT22;1936;47.074;15.336;2023-07-22T08:03:02;35.10;39.60
3842;DHT22;1936;47.074;15.336;2023-07-22T08:05:07;35.60;39.30
3842;DHT22;1936;47.074;15.336;2023-07-22T08:07:15;35.80;46.70
3842;DHT22;1936;47.074;15.336;2023-07-22T08:09:18;36.70;44.30
3842;DHT22;1936;47.074;15.336;2023-07-22T08:11:21;36.20;42.40
3842;DHT22;1936;47.074;15.336;2023-07-22T08:13:25;35.10;43.70
3842;DHT22;1936;47.074;15.336;2023-07-22T08:15:28;34.70;45.50
3842;DHT22;1936;47.074;15.336;2023-07-22T08:17:33;34.00;43.80
3842;DHT22;1936;47.074;15.336;2023-07-22T08:19:36;33.60;48.20
3842;DHT22;1936;47.074;15.336;2023-07-22T08:21:40;33.20;50.80
3842;DHT22;1936;47.074;15.336;2023-07-22T08:23:43;33.80;48.60
3842;DHT22;1936;47.074;15.336;2023-07-22T08:25:49;33.80;48.10
3842;DHT22;1936;47.074;15.336;2023-07-22T08:27:52;33.70;45.20
3842;DHT22;1936;47.074;15.336;2023-07-22T08:29:55;33.80;47.00
3842;DHT22;1936;47.074;15.336;2023-07-22T08:31:59;35.40;47.70
3842;DHT22;1936;47.074;15.336;2023-07-22T08:34:04;35.30;43.70
3842;DHT22;1936;47.074;15.336;2023-07-22T08:36:07;35.50;41.70
3842;DHT22;1936;47.074;15.336;2023-07-22T08:38:11;35.70;42.00
3842;DHT22;1936;47.074;15.336;2023-07-22T08:40:14;35.10;40.30
3842;DHT22;1936;47.074;15.336;2023-07-22T08:42:19;35.10;44.50
3842;DHT22;1936;47.074;15.336;2023-07-22T08:44:25;34.50;47.20
3842;DHT22;1936;47.074;15.336;2023-07-22T08:46:33;35.30;39.70
3842;DHT22;1936;47.074;15.336;2023-07-22T08:48:37;35.90;40.90
3842;DHT22;1936;47.074;15.336;2023-07-22T08:50:48;35.70;34.90
3842;DHT22;1936;47.074;15.336;2023-07-22T08:52:53;36.20;33.70
3842;DHT22;1936;47.074;15.336;2023-07-22T08:54:56;36.90;38.40
3842;DHT22;1936;47.074;15.336;2023-07-22T08:57:00;36.80;36.70
3842;DHT22;1936;47.074;15.336;2023-07-22T08:59:05;34.60;39.70
3842;DHT22;1936;47.074;15.336;2023-07-22T09:01:13;34.50;38.60
3842;DHT22;1936;47.074;15.336;2023-07-22T09:03:18;34.20;39.60
3842;DHT22;1936;47.074;15.336;2023-07-22T09:05:21;35.70;46.90
3842;DHT22;1936;47.074;15.336;2023-07-22T09:07:26;37.50;52.30
3842;DHT22;1936;47.074;15.336;2023-07-22T09:09:29;36.80;56.80
3842;DHT22;1936;47.074;15.336;2023-07-22T09:11:34;37.30;48.70
3842;DHT22;1936;47.074;15.336;2023-07-22T09:13:38;37.50;56.10
3842;DHT22;1936;47.074;15.336;2023-07-22T09:15:43;36.60;62.00
3842;DHT22;1936;47.074;15.336;2023-07-22T09:17:47;35.80;58.00
3842;DHT22;1936;47.074;15.336;2023-07-22T09:19:52;35.00;54.90
3842;DHT22;1936;47.074;15.336;2023-07-22T09:21:56;34.30;37.20
3842;DHT22;1936;47.074;15.336;2023-07-22T09:24:01;33.70;42.10
3842;DHT22;1936;47.074;15.336;2023-07-22T09:26:09;33.70;39.10
3842;DHT22;1936;47.074;15.336;2023-07-22T09:28:12;32.60;43.60
3842;DHT22;1936;47.074;15.336;2023-07-22T09:30:24;32.30;46.50
3842;DHT22;1936;47.074;15.336;2023-07-22T09:32:35;31.30;72.60
3842;DHT22;1936;47.074;15.336;2023-07-22T09:34:54;30.20;50.90
3842;DHT22;1936;47.074;15.336;2023-07-22T09:36:58;30.90;50.00
3842;DHT22;1936;47.074;15.336;2023-07-22T09:39:07;30.60;48.10
3842;DHT22;1936;47.074;15.336;2023-07-22T09:41:11;30.60;45.20
3842;DHT22;1936;47.074;15.336;2023-07-22T09:43:15;30.60;52.10
3842;DHT22;1936;47.074;15.336;2023-07-22T09:45:20;29.70;52.70
3842;DHT22;1936;47.074;15.336;2023-07-22T09:47:24;29.20;49.90
3842;DHT22;1936;47.074;15.336;2023-07-22T09:49:28;29.20;51.80
3842;DHT22;1936;47.074;15.336;2023-07-22T09:51:35;29.20;52.00
3842;DHT22;1936;47.074;15.336;2023-07-22T09:54:00;28.60;50.80
3842;DHT22;1936;47.074;15.336;2023-07-22T09:56:05;28.60;52.20
3842;DHT22;1936;47.074;15.336;2023-07-22T09:58:09;28.60;55.80
3842;DHT22;1936;47.074;15.336;2023-07-22T10:00:16;29.00;53.50
3842;DHT22;1936;47.074;15.336;2023-07-22T10:02:22;29.80;52.20
3842;DHT22;1936;47.074;15.336;2023-07-22T10:04:28;30.10;49.10
3842;DHT22;1936;47.074;15.336;2023-07-22T10:06:35;30.00;49.00
3842;DHT22;1936;47.074;15.336;2023-07-22T10:08:39;29.50;53.30
3842;DHT22;1936;47.074;15.336;2023-07-22T10:10:45;30.40;49.70
3842;DHT22;1936;47.074;15.336;2023-07-22T10:12:51;31.10;48.50
3842;DHT22;1936;47.074;15.336;2023-07-22T10:14:55;32.40;44.40
3842;DHT22;1936;47.074;15.336;2023-07-22T10:16:59;33.00;44.50
3842;DHT22;1936;47.074;15.336;2023-07-22T10:19:04;33.10;43.10
3842;DHT22;1936;47.074;15.336;2023-07-22T10:21:08;33.30;42.10
3842;DHT22;1936;47.074;15.336;2023-07-22T10:23:13;33.00;42.50
3842;DHT22;1936;47.074;15.336;2023-07-22T10:25:19;33.30;44.50
3842;DHT22;1936;47.074;15.336;2023-07-22T10:27:22;32.50;43.70
3842;DHT22;1936;47.074;15.336;2023-07-22T10:29:27;32.80;42.70
3842;DHT22;1936;47.074;15.336;2023-07-22T10:31:31;32.60;40.50
3842;DHT22;1936;47.074;15.336;2023-07-22T10:33:35;33.10;41.90
3842;DHT22;1936;47.074;15.336;2023-07-22T10:35:43;32.90;38.00
3842;DHT22;1936;47.074;15.336;2023-07-22T10:37:47;32.40;38.80
3842;DHT22;1936;47.074;15.336;2023-07-22T10:39:50;32.70;42.20
3842;DHT22;1936;47.074;15.336;2023-07-22T10:42:00;33.70;41.90
3842;DHT22;1936;47.074;15.336;2023-07-22T10:44:06;34.00;40.60
3842;DHT22;1936;47.074;15.336;2023-07-22T10:46:16;34.00;39.50
3842;DHT22;1936;47.074;15.336;2023-07-22T10:48:22;34.30;42.90
3842;DHT22;1936;47.074;15.336;2023-07-22T10:50:38;33.80;41.10
3842;DHT22;1936;47.074;15.336;2023-07-22T10:52:44;33.30;36.10
3842;DHT22;1936;47.074;15.336;2023-07-22T10:54:49;33.60;37.30
3842;DHT22;1936;47.074;15.336;2023-07-22T10:56:56;33.60;38.40
3842;DHT22;1936;47.074;15.336;2023-07-22T10:58:59;33.90;38.80
3842;DHT22;1936;47.074;15.336;2023-07-22T11:01:36;34.20;40.10
3842;DHT22;1936;47.074;15.336;2023-07-22T11:04:05;33.90;36.20
3842;DHT22;1936;47.074;15.336;2023-07-22T11:06:08;34.20;37.00
3842;DHT22;1936;47.074;15.336;2023-07-22T11:08:11;33.80;35.70
3842;DHT22;1936;47.074;15.336;2023-07-22T11:10:18;33.60;36.30
3842;DHT22;1936;47.074;15.336;2023-07-22T11:12:24;32.70;36.80
3842;DHT22;1936;47.074;15.336;2023-07-22T11:14:29;31.90;40.90
3842;DHT22;1936;47.074;15.336;2023-07-22T11:16:32;32.10;41.80
3842;DHT22;1936;47.074;15.336;2023-07-22T11:18:48;31.20;42.90
3842;DHT22;1936;47.074;15.336;2023-07-22T11:20:53;30.50;42.50
3842;DHT22;1936;47.074;15.336;2023-07-22T11:22:57;30.60;49.70
3842;DHT22;1936;47.074;15.336;2023-07-22T11:25:01;30.80;47.00
3842;DHT22;1936;47.074;15.336;2023-07-22T11:27:06;30.10;47.20
3842;DHT22;1936;47.074;15.336;2023-07-22T11:29:10;29.90;48.40
3842;DHT22;1936;47.074;15.336;2023-07-22T11:31:14;29.80;48.80
3842;DHT22;1936;47.074;15.336;2023-07-22T11:33:17;29.00;51.00
3842;DHT22;1936;47.074;15.336;2023-07-22T11:35:22;29.10;50.30
3842;DHT22;1936;47.074;15.336;2023-07-22T11:37:27;29.30;46.80
3842;DHT22;1936;47.074;15.336;2023-07-22T11:39:30;29.10;48.50
3842;DHT22;1936;47.074;15.336;2023-07-22T11:41:35;29.50;51.50
3842;DHT22;1936;47.074;15.336;2023-07-22T11:43:39;28.90;50.70
3842;DHT22;1936;47.074;15.336;2023-07-22T11:45:42;29.10;49.10
3842;DHT22;1936;47.074;15.336;2023-07-22T11:47:47;29.00;48.50
3842;DHT22;1936;47.074;15.336;2023-07-22T11:49:51;28.40;53.60
3842;DHT22;1936;47.074;15.336;2023-07-22T11:52:00;28.70;47.50
3842;DHT22;1936;47.074;15.336;2023-07-22T11:54:08;29.00;48.70
3842;DHT22;1936;47.074;15.336;2023-07-22T11:56:11;28.90;50.60
3842;DHT22;1936;47.074;15.336;2023-07-22T11:58:14;28.90;49.80
3842;DHT22;1936;47.074;15.336;2023-07-22T12:00:26;29.20;50.70
3842;DHT22;1936;47.074;15.336;2023-07-22T12:02:30;28.90;47.90
3842;DHT22;1936;47.074;15.336;2023-07-22T12:04:39;28.70;54.40
3842;DHT22;1936;47.074;15.336;2023-07-22T12:06:43;27.80;53.30
3842;DHT22;1936;47.074;15.336;2023-07-22T12:08:49;27.70;51.80
3842;DHT22;1936;47.074;15.336;2023-07-22T12:10:56;27.60;59.80
3842;DHT22;1936;47.074;15.336;2023-07-22T12:13:01;27.80;59.70
3842;DHT22;1936;47.074;15.336;2023-07-22T12:15:09;27.40;59.50
3842;DHT22;1936;47.074;15.336;2023-07-22T12:17:15;27.90;57.50
3842;DHT22;1936;47.074;15.336;2023-07-22T12:19:18;28.20;60.80
3842;DHT22;1936;47.074;15.336;2023-07-22T12:21:21;28.00;58.10
3842;DHT22;1936;47.074;15.336;2023-07-22T12:23:25;28.10;59.70
3842;DHT22;1936;47.074;15.336;2023-07-22T12:25:31;27.80;58.80
3842;DHT22;1936;47.074;15.336;2023-07-22T12:27:36;28.00;60.10
3842;DHT22;1936;47.074;15.336;2023-07-22T12:29:38;28.10;57.80
3842;DHT22;1936;47.074;15.336;2023-07-22T12:31:42;28.10;53.40
3842;DHT22;1936;47.074;15.336;2023-07-22T12:33:44;28.40;52.40
3842;DHT22;1936;47.074;15.336;2023-07-22T12:35:47;28.50;48.90
3842;DHT22;1936;47.074;15.336;2023-07-22T12:37:50;28.40;48.00
3842;DHT22;1936;47.074;15.336;2023-07-22T12:39:54;28.80;54.10
3842;DHT22;1936;47.074;15.336;2023-07-22T12:41:58;28.90;47.30
3842;DHT22;1936;47.074;15.336;2023-07-22T12:44:01;28.60;51.40
3842;DHT22;1936;47.074;15.336;2023-07-22T12:46:05;28.40;51.20
3842;DHT22;1936;47.074;15.336;2023-07-22T12:48:08;28.80;52.20
3842;DHT22;1936;47.074;15.336;2023-07-22T12:50:12;29.10;47.90
3842;DHT22;1936;47.074;15.336;2023-07-22T12:52:15;28.90;52.00
3842;DHT22;1936;47.074;15.336;2023-07-22T12:54:18;28.90;50.70
3842;DHT22;1936;47.074;15.336;2023-07-22T12:56:22;29.00;51.10
3842;DHT22;1936;47.074;15.336;2023-07-22T12:58:27;29.30;52.70
3842;DHT22;1936;47.074;15.336;2023-07-22T13:00:30;29.20;51.90
3842;DHT22;1936;47.074;15.336;2023-07-22T13:02:34;29.20;49.50
3842;DHT22;1936;47.074;15.336;2023-07-22T13:04:37;29.20;52.60
3842;DHT22;1936;47.074;15.336;2023-07-22T13:06:41;29.40;54.60
3842;DHT22;1936;47.074;15.336;2023-07-22T13:08:44;28.90;55.00
3842;DHT22;1936;47.074;15.336;2023-07-22T13:10:47;28.00;54.20
3842;DHT22;1936;47.074;15.336;2023-07-22T13:12:51;28.10;52.90
3842;DHT22;1936;47.074;15.336;2023-07-22T13:14:54;27.40;57.70
3842;DHT22;1936;47.074;15.336;2023-07-22T13:16:58;27.10;61.20
3842;DHT22;1936;47.074;15.336;2023-07-22T13:19:01;27.70;60.00
3842;DHT22;1936;47.074;15.336;2023-07-22T13:21:05;27.90;55.90